createdAt,value
2017-09-30T00:01:34.605Z,60.3
2017-09-30T00:06:40.339Z,60.3
2017-09-30T00:11:46.081Z,60.3
2017-09-30T00:16:50.806Z,60.3
2017-09-30T00:21:56.204Z,60.3
2017-09-30T00:27:01.600Z,60.3
2017-09-30T00:32:06.333Z,60.3
2017-09-30T00:37:11.732Z,60.3
2017-09-30T00:42:17.136Z,60.2
2017-09-30T00:47:21.861Z,60.2
2017-09-30T00:52:27.597Z,60.2
2017-09-30T00:57:32.999Z,60.2
2017-09-30T01:02:38.062Z,60.1
2017-09-30T01:07:43.463Z,60.1
2017-09-30T01:12:48.862Z,60.1
2017-09-30T01:17:54.262Z,60.1
2017-09-30T01:22:58.319Z,60.1
2017-09-30T01:28:04.049Z,60.1
2017-09-30T01:33:09.111Z,60.1
2017-09-30T01:38:44.024Z,60.1
2017-09-30T01:43:49.762Z,60
2017-09-30T01:48:55.161Z,60
2017-09-30T01:54:00.221Z,60
2017-09-30T01:59:04.953Z,60
2017-09-30T02:04:09.681Z,60
2017-09-30T02:09:15.417Z,60
2017-09-30T02:14:20.150Z,59.9
2017-09-30T02:19:24.876Z,59.9
2017-09-30T02:24:29.604Z,59.9
2017-09-30T02:29:34.668Z,59.9
2017-09-30T02:34:39.733Z,59.9
2017-09-30T02:39:44.795Z,59.9
2017-09-30T02:44:50.193Z,59.8
2017-09-30T02:49:55.592Z,59.8
2017-09-30T02:55:00.653Z,59.8
2017-09-30T03:00:06.059Z,59.8
2017-09-30T03:05:10.788Z,59.8
2017-09-30T03:10:15.851Z,59.7
2017-09-30T03:15:21.249Z,59.7
2017-09-30T03:20:26.312Z,59.7
2017-09-30T03:25:31.375Z,59.7
2017-09-30T03:30:36.440Z,59.7
2017-09-30T03:35:41.168Z,59.6
2017-09-30T03:40:45.895Z,59.6
2017-09-30T03:45:50.965Z,59.6
2017-09-30T03:50:55.364Z,59.6
2017-09-30T03:56:00.425Z,59.6
2017-09-30T04:01:05.824Z,59.6
2017-09-30T04:06:10.225Z,59.5
2017-09-30T04:11:14.958Z,59.5
2017-09-30T04:16:20.026Z,59.5
2017-09-30T04:21:24.416Z,59.5
2017-09-30T04:26:30.156Z,59.5
2017-09-30T04:31:35.562Z,59.5
2017-09-30T04:36:40.635Z,59.5
2017-09-30T04:41:45.714Z,59.5
2017-09-30T04:46:51.118Z,59.5
2017-09-30T04:51:56.525Z,59.5
2017-09-30T04:57:02.260Z,59.6
2017-09-30T05:02:06.987Z,59.6
2017-09-30T05:07:12.389Z,59.6
2017-09-30T05:12:17.790Z,59.6
2017-09-30T05:17:23.237Z,59.6
2017-09-30T05:22:28.297Z,59.6
2017-09-30T05:27:33.359Z,59.6
2017-09-30T05:32:38.757Z,59.6
2017-09-30T05:37:44.155Z,59.6
2017-09-30T05:42:48.882Z,59.6
2017-09-30T05:47:54.953Z,59.5
2017-09-30T05:53:00.016Z,59.5
2017-09-30T05:58:05.079Z,59.5
2017-09-30T06:03:09.814Z,59.5
2017-09-30T06:08:15.553Z,59.5
2017-09-30T06:13:20.620Z,59.5
2017-09-30T06:18:25.683Z,59.5
2017-09-30T06:23:31.089Z,59.4
2017-09-30T06:28:36.822Z,59.4
2017-09-30T06:33:42.892Z,59.4
2017-09-30T06:38:48.292Z,59.4
2017-09-30T06:43:54.039Z,59.4
2017-09-30T06:48:59.436Z,59.4
2017-09-30T06:54:04.500Z,59.4
2017-09-30T06:59:09.900Z,59.4
2017-09-30T07:04:15.296Z,59.4
2017-09-30T07:09:20.360Z,59.4
2017-09-30T07:14:26.495Z,59.4
2017-09-30T07:19:30.947Z,59.4
2017-09-30T07:24:36.683Z,59.5
2017-09-30T07:29:42.421Z,59.6
2017-09-30T07:34:47.825Z,59.6
2017-09-30T07:39:52.219Z,59.6
2017-09-30T07:44:56.631Z,59.6
2017-09-30T07:50:01.353Z,59.6
2017-09-30T07:55:06.758Z,59.6
2017-09-30T08:00:12.167Z,59.6
2017-09-30T08:05:16.576Z,59.6
2017-09-30T08:10:22.206Z,59.5
2017-09-30T08:15:27.628Z,59.6
2017-09-30T08:20:33.004Z,59.7
2017-09-30T08:25:38.814Z,59.7
2017-09-30T08:30:44.233Z,59.7
2017-09-30T08:35:48.647Z,59.8
2017-09-30T08:40:54.428Z,60.2
2017-09-30T08:45:58.921Z,60.5
2017-09-30T08:51:04.875Z,60.7
2017-09-30T08:56:10.290Z,60.7
2017-09-30T09:01:14.691Z,60.8
2017-09-30T09:06:19.799Z,60.7
2017-09-30T09:11:25.949Z,60.6
2017-09-30T09:16:31.048Z,60.3
2017-09-30T09:21:36.448Z,59.9
2017-09-30T09:26:41.854Z,59.6
2017-09-30T09:31:47.633Z,59.3
2017-09-30T09:36:53.094Z,59.2
2017-09-30T09:41:58.163Z,59.1
2017-09-30T09:47:03.560Z,59
2017-09-30T09:52:08.961Z,59.2
2017-09-30T09:57:14.359Z,59.6
2017-09-30T10:02:19.425Z,59.7
2017-09-30T10:07:25.498Z,59.6
2017-09-30T10:12:31.568Z,59.4
2017-09-30T10:17:36.681Z,59.3
2017-09-30T10:22:41.745Z,59
2017-09-30T10:27:47.479Z,58.9
2017-09-30T10:32:52.881Z,58.2
2017-09-30T10:37:58.290Z,57.4
2017-09-30T10:43:04.041Z,58.4
2017-09-30T10:48:08.937Z,58.7
2017-09-30T10:53:14.343Z,58.8
2017-09-30T10:58:20.078Z,58.8
2017-09-30T11:03:24.927Z,58.8
2017-09-30T11:08:30.331Z,58.7
2017-09-30T11:13:35.750Z,58.7
2017-09-30T11:18:40.484Z,58.8
2017-09-30T11:23:46.224Z,58.8
2017-09-30T11:28:51.660Z,58.8
2017-09-30T11:33:57.403Z,58.7
2017-09-30T11:39:02.964Z,58.7
2017-09-30T11:44:07.747Z,58.7
2017-09-30T11:49:12.491Z,58.7
2017-09-30T11:54:17.227Z,58.7
2017-09-30T11:59:22.633Z,58.7
2017-09-30T12:04:28.369Z,58.6
2017-09-30T12:09:33.771Z,58.5
2017-09-30T12:14:39.171Z,58.5
2017-09-30T12:19:44.583Z,58.5
2017-09-30T12:24:50.321Z,58.6
2017-09-30T12:29:54.721Z,58.7
2017-09-30T12:35:00.120Z,58.7
2017-09-30T12:40:05.189Z,58.6
2017-09-30T12:45:10.924Z,58.6
2017-09-30T12:50:15.991Z,58.6
2017-09-30T12:55:20.398Z,58.6
2017-09-30T13:00:24.798Z,58.6
2017-09-30T13:05:30.205Z,58.6
2017-09-30T13:10:35.605Z,58.6
2017-09-30T13:15:40.670Z,58.8
2017-09-30T13:20:46.403Z,59
2017-09-30T13:25:51.866Z,58
2017-09-30T13:30:56.946Z,58.7
2017-09-30T13:36:02.778Z,59.1
2017-09-30T13:41:07.860Z,59.1
2017-09-30T13:46:12.948Z,59
2017-09-30T13:51:18.041Z,59
2017-09-30T13:56:23.468Z,58.9
2017-09-30T14:01:28.549Z,58.9
2017-09-30T14:06:33.630Z,59
2017-09-30T14:11:39.057Z,59
2017-09-30T14:16:44.473Z,59.1
2017-09-30T14:21:50.251Z,59.1
2017-09-30T14:26:54.997Z,59.2
2017-09-30T14:32:00.072Z,59.3
2017-09-30T14:37:05.150Z,59.4
2017-09-30T14:42:10.591Z,59.4
2017-09-30T14:47:15.728Z,59.5
2017-09-30T14:52:20.856Z,59.5
2017-09-30T14:57:25.945Z,59.6
2017-09-30T15:02:31.397Z,59.6
2017-09-30T15:07:36.809Z,59.8
2017-09-30T15:12:42.225Z,59.8
2017-09-30T15:17:47.634Z,59.9
2017-09-30T15:22:52.396Z,60
2017-09-30T15:27:57.493Z,60.1
2017-09-30T15:33:02.568Z,60.2
2017-09-30T15:38:07.645Z,60.3
2017-09-30T15:43:12.717Z,60.1
2017-09-30T15:48:17.943Z,59.9
2017-09-30T15:53:22.693Z,59.6
2017-09-30T15:58:27.421Z,59.4
2017-09-30T16:03:32.602Z,59.3
2017-09-30T16:08:37.343Z,59.3
2017-09-30T16:13:42.467Z,57.9
2017-09-30T16:18:47.878Z,58
2017-09-30T16:23:53.282Z,58.4
2017-09-30T16:28:58.012Z,58.6
2017-09-30T16:34:03.082Z,59.2
2017-09-30T16:39:08.481Z,59.5
2017-09-30T16:44:12.873Z,59.7
2017-09-30T16:49:17.605Z,59.9
2017-09-30T16:54:23.343Z,60
2017-09-30T16:59:28.417Z,60.1
2017-09-30T17:04:34.161Z,60.2
2017-09-30T17:09:40.139Z,60.3
2017-09-30T17:14:45.632Z,60.5
2017-09-30T17:19:51.042Z,60.6
2017-09-30T17:24:56.113Z,60.6
2017-09-30T17:30:01.196Z,60.7
2017-09-30T17:35:07.137Z,60.8
2017-09-30T17:40:12.208Z,60.8
2017-09-30T17:45:16.940Z,60.9
2017-09-30T17:50:22.349Z,60.9
2017-09-30T17:55:27.419Z,60.9
2017-09-30T18:00:33.229Z,60.9
2017-09-30T18:05:38.657Z,61.1
2017-09-30T18:10:44.406Z,61.2
2017-09-30T18:15:49.482Z,61.2
2017-09-30T18:20:55.562Z,61.2
2017-09-30T18:26:00.973Z,61.2
2017-09-30T18:31:06.381Z,61.2
2017-09-30T18:36:11.787Z,61.2
2017-09-30T18:41:17.222Z,61.2
2017-09-30T18:46:22.945Z,61.2
2017-09-30T18:51:28.418Z,61.2
2017-09-30T18:56:33.159Z,61.2
2017-09-30T19:01:38.238Z,61.1
2017-09-30T19:06:44.310Z,61.1
2017-09-30T19:11:49.386Z,61.1
2017-09-30T19:16:54.822Z,61.1
2017-09-30T19:21:59.891Z,61.1
2017-09-30T19:27:05.300Z,61.1
2017-09-30T19:32:11.037Z,61.2
2017-09-30T19:37:16.778Z,61.2
2017-09-30T19:42:21.516Z,61.2
2017-09-30T19:47:26.629Z,61.2
2017-09-30T19:52:31.376Z,61.3
2017-09-30T19:57:36.461Z,61.3
2017-09-30T20:02:41.200Z,61.3
2017-09-30T20:07:46.283Z,61.3
2017-09-30T20:12:52.034Z,61.3
2017-09-30T20:17:57.451Z,61.3
2017-09-30T20:23:02.849Z,61.3
2017-09-30T20:28:08.265Z,61.2
2017-09-30T20:33:13.338Z,61.2
2017-09-30T20:38:18.760Z,61.1
2017-09-30T20:43:24.173Z,61
2017-09-30T20:48:29.588Z,61
2017-09-30T20:53:34.665Z,61
2017-09-30T20:58:40.084Z,61
2017-09-30T21:03:45.494Z,60.9
2017-09-30T21:08:50.943Z,60.9
2017-09-30T21:13:55.685Z,60.9
2017-09-30T21:19:00.763Z,60.8
2017-09-30T21:24:06.502Z,60.7
2017-09-30T21:29:12.009Z,60.6
2017-09-30T21:34:18.088Z,60.8
2017-09-30T21:39:23.972Z,60.6
2017-09-30T21:44:29.050Z,60.5
2017-09-30T21:49:34.120Z,60.4
2017-09-30T21:54:39.198Z,60.3
2017-09-30T21:59:44.277Z,60.3
2017-09-30T22:04:49.675Z,60.2
2017-09-30T22:09:55.076Z,60.2
2017-09-30T22:15:00.148Z,60.1
2017-09-30T22:20:05.888Z,60.1
2017-09-30T22:25:11.333Z,60.1
2017-09-30T22:30:17.066Z,60
2017-09-30T22:35:21.799Z,60
2017-09-30T22:40:27.539Z,60
2017-09-30T22:45:33.273Z,59.9
2017-09-30T22:50:38.332Z,59.9
2017-09-30T22:55:44.402Z,59.9
2017-09-30T23:00:49.803Z,59.9
2017-09-30T23:05:55.538Z,59.9
2017-09-30T23:10:59.599Z,59.8
2017-09-30T23:16:05.335Z,59.8
2017-09-30T23:21:10.088Z,59.8
2017-09-30T23:26:15.128Z,59.8
2017-09-30T23:31:20.526Z,59.7
2017-09-30T23:36:25.596Z,59.7
2017-09-30T23:41:30.335Z,59.7
2017-09-30T23:46:35.401Z,59.7
2017-09-30T23:51:40.466Z,59.7
2017-09-30T23:56:45.861Z,59.6
